Stations météo

réclame
Mon MeteoGroup
Motril, Espagne (8485): Température de l'air & dewpoint: 19.02.2018 00:00:00 - 25.02.2018 00:00:00 (CET)Motril, Espagne (8485): Vitesse du vent & gusts: 19.02.2018 00:00:00 - 25.02.2018 00:00:00 (CET)Motril, Espagne (8485): Direction du vent: 19.02.2018 00:00:00 - 25.02.2018 00:00:00 (CET)Motril, Espagne (8485): Quantités de précipitations: 19.02.2018 00:00:00 - 25.02.2018 00:00:00 (CET)
Date & Time tt [°C] td [°C] ff [km/h] ff [knt] fx [km/h] fx [knt] dd rr [mm]
25.02.2018 00:00:00 11,5 6,4 4 2 6 4 ENE 0,0
24.02.2018 23:00:00 11,4 6,3 3 2 6 3 NE 0,0
24.02.2018 22:00:00 11,3 6,2 0 0 8 4 E 0,0
24.02.2018 21:00:00 11,0 6,0 5 3 7 4 NE 0,0
24.02.2018 20:00:00 12,1 6,6 1 0 8 5 S 0,0
24.02.2018 19:00:00 12,7 6,5 5 3 10 5 S -
24.02.2018 18:00:00 14,0 6,6 6 3 11 6 SSE 0,0
24.02.2018 17:00:00 13,9 6,5 6 3 13 7 S 0,0
24.02.2018 16:00:00 13,4 6,1 8 5 18 10 S 0,0
24.02.2018 15:00:00 14,8 6,4 10 6 19 11 SSE 0,0
24.02.2018 14:00:00 14,7 6,3 14 8 24 13 SE 0,0
24.02.2018 13:00:00 14,3 5,9 19 11 25 13 SE -
24.02.2018 12:00:00 14,5 5,8 14 7 18 10 ESE 0,0
24.02.2018 11:00:00 13,5 5,7 9 5 16 9 E 0,0
24.02.2018 10:00:00 11,7 5,6 2 1 6 4 ENE 0,0
24.02.2018 09:00:00 10,6 5,2 3 2 9 5 NNE 0,0
24.02.2018 08:00:00 9,7 4,7 4 2 9 5 NNE 0,0
24.02.2018 07:00:00 8,7 4,0 5 3 11 6 N -
24.02.2018 06:00:00 9,0 4,0 6 3 10 5 NE 0,0
24.02.2018 05:00:00 9,9 4,3 4 2 8 4 N 0,0
24.02.2018 04:00:00 10,1 4,7 3 2 10 6 NNE 0,0
24.02.2018 03:00:00 10,2 4,8 5 3 14 7 NNE 0,0
24.02.2018 02:00:00 10,8 5,1 5 3 19 10 ENE 0,0
24.02.2018 01:00:00 11,4 5,5 5 3 22 12 ENE -
24.02.2018 00:00:00 11,4 5,5 4 2 19 10 NE 0,0
23.02.2018 23:00:00 11,4 5,7 8 5 24 13 NE 0,0
23.02.2018 22:00:00 11,5 5,4 5 3 15 8 ENE 0,0
23.02.2018 21:00:00 11,9 5,8 4 2 28 15 ENE 0,0
23.02.2018 20:00:00 13,0 6,6 17 9 26 14 E 0,0
23.02.2018 19:00:00 13,2 5,9 14 8 28 15 E -
23.02.2018 18:00:00 13,9 5,5 19 11 31 17 E 0,0
23.02.2018 17:00:00 14,3 5,7 21 11 29 16 ESE 0,0
23.02.2018 16:00:00 14,7 6,8 21 11 32 17 ESE 0,0
23.02.2018 15:00:00 14,8 6,4 23 13 31 17 ESE 0,0
23.02.2018 14:00:00 14,8 5,6 23 12 32 18 ESE 0,0
23.02.2018 13:00:00 14,8 4,8 21 11 29 16 E -
23.02.2018 12:00:00 14,5 4,5 18 10 27 15 ESE 0,0
23.02.2018 11:00:00 13,4 3,8 16 9 23 12 ESE 0,0
23.02.2018 10:00:00 14,5 3,4 4 2 10 5 SE 0,0
23.02.2018 09:00:00 13,1 1,5 4 2 13 7 NE 0,0
23.02.2018 08:00:00 10,4 -0,7 6 4 21 11 NE 0,0
23.02.2018 07:00:00 11,6 -0,5 11 6 21 11 N -
23.02.2018 06:00:00 11,9 -0,2 8 4 22 12 NNE 0,0
23.02.2018 05:00:00 11,6 0,4 9 5 19 11 NNE 0,0
23.02.2018 04:00:00 12,4 -0,1 11 6 21 12 N 0,0
23.02.2018 03:00:00 11,1 1,1 4 2 18 10 NNE 0,0
23.02.2018 02:00:00 11,0 2,8 7 4 17 9 NNE 0,0
23.02.2018 01:00:00 12,1 2,0 9 5 27 14 ENE -
23.02.2018 00:00:00 14,0 -1,2 11 6 38 20 NE 0,0
22.02.2018 23:00:00 13,8 -1,0 6 3 18 10 NNW 0,0
22.02.2018 22:00:00 13,2 3,6 5 3 16 9 NW 0,0
22.02.2018 21:00:00 12,7 5,6 2 1 22 12 SSW 0,0
22.02.2018 20:00:00 13,9 8,7 16 9 49 26 W 0,0
22.02.2018 19:00:00 13,9 8,5 18 10 42 23 W -
22.02.2018 18:00:00 14,3 8,0 21 11 49 26 WSW 0,0
22.02.2018 17:00:00 14,7 8,4 20 11 44 24 WSW 0,0
22.02.2018 16:00:00 14,3 8,3 23 12 40 22 WSW 0,0
22.02.2018 15:00:00 14,3 8,3 18 10 34 18 SW 0,0
22.02.2018 14:00:00 14,2 8,0 18 10 31 17 SW 0,0
22.02.2018 13:00:00 14,1 7,6 14 8 23 12 SW -
22.02.2018 12:00:00 13,5 8,1 10 5 16 9 S 0,0
22.02.2018 11:00:00 13,9 8,5 10 5 16 9 SSE 0,0
22.02.2018 10:00:00 12,7 6,1 6 4 10 5 E 0,0
22.02.2018 09:00:00 10,3 5,3 1 0 9 5 NNE 0,0
22.02.2018 08:00:00 10,3 5,5 3 1 6 4 NNW 0,0
22.02.2018 07:00:00 10,4 5,6 3 2 13 7 NW -
22.02.2018 06:00:00 11,0 5,8 6 4 17 9 E 0,0
22.02.2018 05:00:00 10,6 6,2 5 3 31 17 ENE 0,0
22.02.2018 04:00:00 10,8 6,4 19 10 37 20 E 0,0
22.02.2018 03:00:00 11,3 5,8 2 1 7 4 E 0,0
22.02.2018 02:00:00 11,3 6,2 3 2 8 4 NNE 0,0
22.02.2018 01:00:00 11,5 6,6 3 2 9 5 NW -
22.02.2018 00:00:00 11,4 6,5 3 2 10 6 NNE 0,0
21.02.2018 23:00:00 12,0 7,1 7 4 19 10 E 0,0
21.02.2018 22:00:00 13,3 6,9 4 2 15 8 E 0,0
21.02.2018 21:00:00 12,1 6,2 8 4 21 11 ENE 0,0
21.02.2018 20:00:00 13,0 7,7 10 6 33 18 E 0,0
21.02.2018 19:00:00 14,3 8,7 14 8 26 14 E -
21.02.2018 18:00:00 15,8 9,5 17 9 23 12 SE 0,0
21.02.2018 17:00:00 15,7 9,8 18 10 27 14 SE 0,0
21.02.2018 16:00:00 16,0 10,3 19 10 31 17 SE 0,0
21.02.2018 15:00:00 16,3 10,6 21 11 32 18 ESE 0,0
21.02.2018 14:00:00 15,9 11,3 27 15 40 22 ESE 0,0
21.02.2018 13:00:00 17,2 9,4 18 10 34 18 ESE -
21.02.2018 12:00:00 17,0 10,2 21 12 28 15 ESE 0,0
21.02.2018 11:00:00 17,0 9,4 10 5 23 12 SE 0,0
21.02.2018 10:00:00 16,3 8,5 9 5 33 18 NE 0,0
21.02.2018 09:00:00 15,0 3,5 16 8 34 18 N 0,0
21.02.2018 08:00:00 13,4 4,6 7 4 23 13 NNW 0,0
21.02.2018 07:00:00 12,2 6,7 2 1 13 7 W -
21.02.2018 06:00:00 11,0 9,8 3 2 7 4 N 0,0
21.02.2018 05:00:00 9,9 8,5 1 1 7 4 NW 0,0
21.02.2018 04:00:00 10,1 8,7 3 2 8 4 NE 0,0
21.02.2018 03:00:00 10,7 9,3 1 1 8 4 N 0,0
21.02.2018 02:00:00 10,7 9,0 4 2 7 4 N 0,0
21.02.2018 01:00:00 11,7 9,4 5 3 10 5 N -
21.02.2018 00:00:00 11,3 9,6 5 3 10 5 NE 0,0
20.02.2018 23:00:00 11,9 10,1 5 3 8 5 NNE 0,0
20.02.2018 22:00:00 12,4 10,6 1 1 7 4 ESE 0,0
20.02.2018 21:00:00 13,1 11,2 5 3 9 5 NNE 0,0
20.02.2018 20:00:00 14,4 12,1 3 2 11 6 SW 0,0
20.02.2018 19:00:00 14,5 11,8 7 4 17 9 W -
20.02.2018 18:00:00 15,4 11,6 6 4 20 11 WSW 0,0
20.02.2018 17:00:00 15,3 11,5 11 6 22 12 WSW 0,0
20.02.2018 16:00:00 15,4 11,6 13 7 22 12 SW 0,0
20.02.2018 15:00:00 15,5 11,7 13 7 27 15 SW 0,0
20.02.2018 14:00:00 15,2 11,4 14 8 23 13 SSW 0,0
20.02.2018 13:00:00 15,5 10,7 13 7 27 14 SW -
20.02.2018 12:00:00 14,9 10,3 16 8 26 14 WSW 0,0
20.02.2018 11:00:00 15,2 9,8 12 6 23 12 WSW 0,0
20.02.2018 10:00:00 14,2 5,6 8 5 16 9 W 0,0
20.02.2018 09:00:00 12,7 6,3 8 4 18 10 WNW 0,0
20.02.2018 08:00:00 10,2 5,4 4 2 13 7 NW 0,0
20.02.2018 07:00:00 10,7 6,3 9 5 22 12 WNW -
20.02.2018 06:00:00 9,9 7,2 3 2 9 5 NNW 0,0
20.02.2018 05:00:00 9,7 8,3 4 2 7 4 N 0,0
20.02.2018 04:00:00 9,6 8,4 1 0 6 3 E 0,0
20.02.2018 03:00:00 10,3 9,1 1 0 3 2 NNW 0,0
20.02.2018 02:00:00 10,3 9,1 0 0 3 2 NW 0,0
20.02.2018 01:00:00 10,7 9,3 1 1 8 5 NNE -
20.02.2018 00:00:00 11,3 9,6 4 2 8 4 NNE 0,0
19.02.2018 23:00:00 12,1 10,3 2 1 5 3 NE 0,0
19.02.2018 22:00:00 13,3 11,0 0 0 7 4 N 0,0
19.02.2018 21:00:00 13,7 11,2 3 2 6 4 WNW 0,0
19.02.2018 20:00:00 14,1 11,3 2 1 15 8 NE 0,0
19.02.2018 19:00:00 14,4 11,6 11 6 16 8 ESE -
19.02.2018 18:00:00 14,9 11,1 11 6 14 8 ESE 0,0
19.02.2018 17:00:00 16,1 11,3 11 6 15 8 SE 0,0
19.02.2018 16:00:00 16,1 11,5 11 6 16 9 SE 0,0
19.02.2018 15:00:00 15,9 11,5 11 6 18 10 SE 0,0
19.02.2018 14:00:00 16,1 11,3 14 8 18 10 SE 0,0
19.02.2018 13:00:00 16,3 11,0 13 7 16 9 ESE -
19.02.2018 12:00:00 15,9 11,3 9 5 13 7 ESE 0,0
19.02.2018 11:00:00 15,3 12,1 3 2 7 4 S 0,0
19.02.2018 10:00:00 13,5 12,6 1 1 8 4 ENE 0,0
19.02.2018 09:00:00 12,9 12,1 5 3 8 4 E 0,0
19.02.2018 08:00:00 12,4 11,6 1 1 7 4 NNW 0,0
19.02.2018 07:00:00 12,6 11,8 4 2 7 4 NW -
19.02.2018 06:00:00 12,7 11,8 1 1 13 7 NE 2,5
19.02.2018 05:00:00 13,5 11,2 6 3 9 5 N 0,0
19.02.2018 04:00:00 13,9 11,6 3 2 7 4 N 0,0
19.02.2018 03:00:00 14,2 11,9 2 1 13 7 NNE 0,0
19.02.2018 02:00:00 14,5 12,4 8 4 17 9 E 0,0
19.02.2018 01:00:00 14,5 12,2 11 6 16 9 ESE -
19.02.2018 00:00:00 14,5 11,8 4 2 21 11 ESE 0,0

tt = Température de l'air
td = dewpoint
ff = Vitesse du vent
fx = gusts
dd = Direction du vent
rr = Quantités de précipitations

stations d'obs. à proximité